createdAt,value
2018-08-28T00:00:48.443Z,14.46
2018-08-28T00:01:48.444Z,14.32
2018-08-28T00:02:48.476Z,14.35
2018-08-28T00:03:48.440Z,14.35
2018-08-28T00:04:48.433Z,14.50
2018-08-28T00:05:48.444Z,14.32
2018-08-28T00:06:48.443Z,14.43
2018-08-28T00:07:48.468Z,14.35
2018-08-28T00:08:48.444Z,14.44
2018-08-28T00:09:48.441Z,14.47
2018-08-28T00:10:48.437Z,14.44
2018-08-28T00:11:48.569Z,14.46
2018-08-28T00:12:48.471Z,14.47
2018-08-28T00:13:48.444Z,14.46
2018-08-28T00:14:48.442Z,14.52
2018-08-28T00:15:48.440Z,14.57
2018-08-28T00:16:48.439Z,14.57
2018-08-28T00:17:48.466Z,14.50
2018-08-28T00:18:48.442Z,14.50
2018-08-28T00:19:48.440Z,14.57
2018-08-28T00:20:48.439Z,14.50
2018-08-28T00:21:48.439Z,14.56
2018-08-28T00:22:48.468Z,14.49
2018-08-28T00:23:48.467Z,14.65
2018-08-28T00:24:48.439Z,14.60
2018-08-28T00:25:48.439Z,14.65
2018-08-28T00:26:48.444Z,14.69
2018-08-28T00:27:48.460Z,14.75
2018-08-28T00:28:48.484Z,14.83
2018-08-28T00:29:48.454Z,15.03
2018-08-28T00:30:48.448Z,15.13
2018-08-28T00:31:48.452Z,15.31
2018-08-28T00:32:48.455Z,15.33
2018-08-28T00:33:48.481Z,15.49
2018-08-28T00:34:48.450Z,15.51
2018-08-28T00:35:48.450Z,15.60
2018-08-28T00:36:48.451Z,15.57
2018-08-28T00:37:48.452Z,15.61
2018-08-28T00:38:48.481Z,15.61
2018-08-28T00:39:48.454Z,15.52
2018-08-28T00:40:48.449Z,15.51
2018-08-28T00:41:48.455Z,15.57
2018-08-28T00:42:48.456Z,15.63
2018-08-28T00:43:48.479Z,15.61
2018-08-28T00:44:48.451Z,15.64
2018-08-28T00:45:48.451Z,15.63
2018-08-28T00:46:48.455Z,15.68
2018-08-28T00:47:48.450Z,15.67
2018-08-28T00:48:48.483Z,15.68
2018-08-28T00:49:48.448Z,15.64
2018-08-28T00:50:48.452Z,15.67
2018-08-28T00:51:48.448Z,15.74
2018-08-28T00:52:48.452Z,15.72
2018-08-28T00:53:48.482Z,15.63
2018-08-28T00:54:48.455Z,15.78
2018-08-28T00:55:48.448Z,15.68
2018-08-28T00:56:48.452Z,15.67
2018-08-28T00:57:48.453Z,15.75
2018-08-28T00:58:48.478Z,15.70
2018-08-28T00:59:48.450Z,15.63
2018-08-28T01:00:48.455Z,15.63
2018-08-28T01:01:48.449Z,15.72
2018-08-28T01:02:48.454Z,15.64
2018-08-28T01:03:48.481Z,15.60
2018-08-28T01:04:48.454Z,15.68
2018-08-28T01:05:48.450Z,15.61
2018-08-28T01:06:48.453Z,15.59
2018-08-28T01:07:48.450Z,15.72
2018-08-28T01:08:48.473Z,15.63
2018-08-28T01:09:48.454Z,15.59
2018-08-28T01:10:48.454Z,15.57
2018-08-28T01:11:48.447Z,15.63
2018-08-28T01:12:48.450Z,15.70
2018-08-28T01:13:48.479Z,15.59
2018-08-28T01:14:48.459Z,15.59
2018-08-28T01:15:48.452Z,15.59
2018-08-28T01:16:48.448Z,15.57
2018-08-28T01:17:48.448Z,15.51
2018-08-28T01:18:48.477Z,15.42
2018-08-28T01:19:48.450Z,15.28
2018-08-28T01:20:48.455Z,15.08
2018-08-28T01:21:48.453Z,14.91
2018-08-28T01:22:48.450Z,14.83
2018-08-28T01:23:48.477Z,14.72
2018-08-28T01:24:48.456Z,14.61
2018-08-28T01:25:48.452Z,14.50
2018-08-28T01:26:48.449Z,14.47
2018-08-28T01:27:48.451Z,14.50
2018-08-28T01:28:48.482Z,14.38
2018-08-28T01:29:48.453Z,14.35
2018-08-28T01:30:48.449Z,14.32
2018-08-28T01:31:48.457Z,14.38
2018-08-28T01:32:48.456Z,14.34
2018-08-28T01:33:48.482Z,14.34
2018-08-28T01:34:48.454Z,14.42
2018-08-28T01:35:48.453Z,14.38
2018-08-28T01:36:48.447Z,14.52
2018-08-28T01:37:48.448Z,14.42
2018-08-28T01:38:48.479Z,14.50
2018-08-28T01:39:48.451Z,14.44
2018-08-28T01:40:48.451Z,14.52
2018-08-28T01:41:48.451Z,14.49
2018-08-28T01:42:48.447Z,14.52
2018-08-28T01:43:48.479Z,14.62
2018-08-28T01:44:48.434Z,14.53
2018-08-28T01:45:48.438Z,14.52
2018-08-28T01:46:48.432Z,14.61
2018-08-28T01:47:48.432Z,14.53
2018-08-28T01:48:48.460Z,14.54
2018-08-28T01:49:48.433Z,14.49
2018-08-28T01:50:48.432Z,14.52
2018-08-28T01:51:48.566Z,14.50
2018-08-28T01:52:48.435Z,14.39
2018-08-28T01:53:48.461Z,14.35
2018-08-28T01:54:48.433Z,14.37
2018-08-28T01:55:48.430Z,14.38
2018-08-28T01:56:48.430Z,14.35
2018-08-28T01:57:48.429Z,14.25
2018-08-28T01:58:48.459Z,14.21
2018-08-28T01:59:48.429Z,14.17
2018-08-28T02:00:48.431Z,14.16
2018-08-28T02:01:48.426Z,14.14
2018-08-28T02:02:48.431Z,14.20
2018-08-28T02:03:48.455Z,14.12
2018-08-28T02:04:48.426Z,14.19
2018-08-28T02:05:48.431Z,14.21
2018-08-28T02:06:48.427Z,14.21
2018-08-28T02:07:48.432Z,14.21
2018-08-28T02:08:48.449Z,14.25
2018-08-28T02:09:48.420Z,14.29
2018-08-28T02:10:48.424Z,14.20
2018-08-28T02:11:48.424Z,14.20
2018-08-28T02:12:48.424Z,14.20
2018-08-28T02:13:48.450Z,14.17
2018-08-28T02:14:48.424Z,14.20
2018-08-28T02:15:48.425Z,14.19
2018-08-28T02:16:48.420Z,14.21
2018-08-28T02:17:48.449Z,14.24
2018-08-28T02:18:48.427Z,14.27
2018-08-28T02:19:48.424Z,14.28
2018-08-28T02:20:48.418Z,14.24
2018-08-28T02:21:48.421Z,14.27
2018-08-28T02:22:48.449Z,14.28
2018-08-28T02:23:48.422Z,14.27
2018-08-28T02:24:48.424Z,14.19
2018-08-28T02:25:48.421Z,14.38
2018-08-28T02:26:48.418Z,14.42
2018-08-28T02:27:48.419Z,14.37
2018-08-28T02:28:48.443Z,14.49
2018-08-28T02:29:48.422Z,14.46
2018-08-28T02:30:48.419Z,14.47
2018-08-28T02:31:48.537Z,14.44
2018-08-28T02:32:48.443Z,14.50
2018-08-28T02:33:48.416Z,14.61
2018-08-28T02:34:48.416Z,14.68
2018-08-28T02:35:48.441Z,14.68
2018-08-28T02:36:48.415Z,14.72
2018-08-28T02:37:48.416Z,14.72
2018-08-28T02:38:48.440Z,14.78
2018-08-28T02:39:48.412Z,14.83
2018-08-28T02:40:48.419Z,14.74
2018-08-28T02:41:48.412Z,14.94
2018-08-28T02:42:48.441Z,14.93
2018-08-28T02:43:48.413Z,14.93
2018-08-28T02:44:48.412Z,14.91
2018-08-28T02:45:48.413Z,14.99
2018-08-28T02:46:48.417Z,15.03
2018-08-28T02:47:48.437Z,15.08
2018-08-28T02:48:48.438Z,15.08
2018-08-28T02:49:48.411Z,15.09
2018-08-28T02:50:48.410Z,15.11
2018-08-28T02:51:48.412Z,15.12
2018-08-28T02:52:48.410Z,15.20
2018-08-28T02:53:48.438Z,15.20
2018-08-28T02:54:48.409Z,15.24
2018-08-28T02:55:48.473Z,15.24
2018-08-28T02:56:48.411Z,15.26
2018-08-28T02:57:48.403Z,15.33
2018-08-28T02:58:48.408Z,15.35
2018-08-28T02:59:48.439Z,15.31
2018-08-28T03:00:48.405Z,15.41
2018-08-28T03:01:48.405Z,15.43
2018-08-28T03:02:48.471Z,15.45
2018-08-28T03:03:48.410Z,15.59
2018-08-28T03:04:48.434Z,15.63
2018-08-28T03:05:48.408Z,15.54
2018-08-28T03:06:48.411Z,15.74
2018-08-28T03:07:48.408Z,15.67
2018-08-28T03:08:48.411Z,15.68
2018-08-28T03:09:48.435Z,15.70
2018-08-28T03:10:48.410Z,15.72
2018-08-28T03:11:48.622Z,15.74
2018-08-28T03:12:48.410Z,15.76
2018-08-28T03:13:48.408Z,15.86
2018-08-28T03:14:48.434Z,15.82
2018-08-28T03:15:48.431Z,15.82
2018-08-28T03:16:48.406Z,15.81
2018-08-28T03:17:48.413Z,15.86
2018-08-28T03:18:48.416Z,15.86
2018-08-28T03:19:48.434Z,15.84
2018-08-28T03:20:48.407Z,15.85
2018-08-28T03:21:48.407Z,15.81
2018-08-28T03:22:48.410Z,15.85
2018-08-28T03:23:48.411Z,15.89
2018-08-28T03:24:48.436Z,15.93
2018-08-28T03:25:48.408Z,15.89
2018-08-28T03:26:48.411Z,15.93
2018-08-28T03:27:48.412Z,15.93
2018-08-28T03:28:48.411Z,15.93
2018-08-28T03:29:48.433Z,15.99
2018-08-28T03:30:48.437Z,15.85
2018-08-28T03:31:48.412Z,15.82
2018-08-28T03:32:48.407Z,15.78
2018-08-28T03:33:48.413Z,15.72
2018-08-28T03:34:48.416Z,15.64
2018-08-28T03:35:48.447Z,15.52
2018-08-28T03:36:48.408Z,15.54
2018-08-28T03:37:48.411Z,15.54
2018-08-28T03:38:48.412Z,15.46
2018-08-28T03:39:48.415Z,15.48
2018-08-28T03:40:48.438Z,15.31
2018-08-28T03:41:48.412Z,15.28
2018-08-28T03:42:48.413Z,15.26
2018-08-28T03:43:48.409Z,15.21
2018-08-28T03:44:48.453Z,15.09
2018-08-28T03:45:48.464Z,15.13
2018-08-28T03:46:48.415Z,14.99
2018-08-28T03:47:48.411Z,14.95
2018-08-28T03:48:48.411Z,14.91
2018-08-28T03:49:48.416Z,14.91
2018-08-28T03:50:48.451Z,14.78
2018-08-28T03:51:48.486Z,14.80
2018-08-28T03:52:48.412Z,14.88
2018-08-28T03:53:48.424Z,15.01
2018-08-28T03:54:48.417Z,15.02
2018-08-28T03:55:48.446Z,15.12
2018-08-28T03:56:48.413Z,15.13
2018-08-28T03:57:48.412Z,15.23
2018-08-28T03:58:48.415Z,15.28
2018-08-28T03:59:48.412Z,15.38
2018-08-28T04:00:48.446Z,15.33
2018-08-28T04:01:48.412Z,15.42
2018-08-28T04:02:48.419Z,15.49
2018-08-28T04:03:48.456Z,15.49
2018-08-28T04:04:48.418Z,15.59
2018-08-28T04:05:48.444Z,15.45
2018-08-28T04:06:48.417Z,15.59
2018-08-28T04:07:48.414Z,15.56
2018-08-28T04:08:48.417Z,15.52
2018-08-28T04:09:48.414Z,15.41
2018-08-28T04:10:48.442Z,15.41
2018-08-28T04:11:48.413Z,15.42
2018-08-28T04:12:48.414Z,15.54
2018-08-28T04:13:48.415Z,15.49
2018-08-28T04:14:48.422Z,15.42
2018-08-28T04:15:48.443Z,15.36
2018-08-28T04:16:48.440Z,15.38
2018-08-28T04:17:48.416Z,15.35
2018-08-28T04:18:48.420Z,15.31
2018-08-28T04:19:48.416Z,15.33
2018-08-28T04:20:48.432Z,15.26
2018-08-28T04:21:48.440Z,15.41
2018-08-28T04:22:48.420Z,15.28
2018-08-28T04:23:48.422Z,15.27
2018-08-28T04:24:48.421Z,15.30
2018-08-28T04:25:48.417Z,15.27
2018-08-28T04:26:48.444Z,15.23
2018-08-28T04:27:48.417Z,15.20
2018-08-28T04:28:48.417Z,15.24
2018-08-28T04:29:48.417Z,15.20
2018-08-28T04:30:48.469Z,15.19
2018-08-28T04:31:48.445Z,15.15
2018-08-28T04:32:48.435Z,15.15
2018-08-28T04:33:48.416Z,15.11
2018-08-28T04:34:48.423Z,15.17
2018-08-28T04:35:48.426Z,15.19
2018-08-28T04:36:48.464Z,15.23
2018-08-28T04:37:48.417Z,15.27
2018-08-28T04:38:48.435Z,15.24
2018-08-28T04:39:48.416Z,15.21
2018-08-28T04:40:48.420Z,15.24
2018-08-28T04:41:48.474Z,15.23
2018-08-28T04:42:48.415Z,15.23
2018-08-28T04:43:48.417Z,15.20
2018-08-28T04:44:48.420Z,15.30
2018-08-28T04:45:48.417Z,15.19
2018-08-28T04:46:48.451Z,15.28
2018-08-28T04:47:48.417Z,15.28
2018-08-28T04:48:48.461Z,15.28
2018-08-28T04:49:48.418Z,15.28
2018-08-28T04:50:48.417Z,15.28
2018-08-28T04:51:48.446Z,15.38
2018-08-28T04:52:48.422Z,15.30
2018-08-28T04:53:48.419Z,15.33
2018-08-28T04:54:48.444Z,15.38
2018-08-28T04:55:48.421Z,15.39
2018-08-28T04:56:48.689Z,15.33
2018-08-28T04:57:48.425Z,15.48
2018-08-28T04:58:48.419Z,15.43
2018-08-28T04:59:48.418Z,15.43
2018-08-28T05:00:48.493Z,15.48
2018-08-28T05:01:48.448Z,15.48
2018-08-28T05:02:48.418Z,15.61
2018-08-28T05:03:48.420Z,15.63
2018-08-28T05:04:48.422Z,15.60
2018-08-28T05:05:48.456Z,15.63
2018-08-28T05:06:48.420Z,15.72
2018-08-28T05:07:48.474Z,15.66
2018-08-28T05:08:48.985Z,15.76
2018-08-28T05:09:48.417Z,15.76
2018-08-28T05:10:48.420Z,15.75
2018-08-28T05:11:48.505Z,15.72
2018-08-28T05:12:48.418Z,15.81
2018-08-28T05:13:48.421Z,15.74
2018-08-28T05:14:48.421Z,15.84
2018-08-28T05:15:48.562Z,15.89
2018-08-28T05:16:48.425Z,15.94
2018-08-28T05:17:48.424Z,15.93
2018-08-28T05:18:48.422Z,16.04
2018-08-28T05:19:48.425Z,16.07
2018-08-28T05:20:48.451Z,16.06
2018-08-28T05:21:48.422Z,16.23
2018-08-28T05:22:48.423Z,16.12
2018-08-28T05:23:48.423Z,16.06
2018-08-28T05:24:48.428Z,16.22
2018-08-28T05:25:48.453Z,16.07
2018-08-28T05:26:48.425Z,16.12
2018-08-28T05:27:48.427Z,16.23
2018-08-28T05:28:48.456Z,16.12
2018-08-28T05:29:48.428Z,16.14
2018-08-28T05:30:48.456Z,16.23
2018-08-28T05:31:48.432Z,16.31
2018-08-28T05:32:48.460Z,16.26
2018-08-28T05:33:48.428Z,16.30
2018-08-28T05:34:48.436Z,16.48
2018-08-28T05:35:48.429Z,16.45
2018-08-28T05:36:48.456Z,16.48
2018-08-28T05:37:48.432Z,16.50
2018-08-28T05:38:48.432Z,16.49
2018-08-28T05:39:48.428Z,16.53
2018-08-28T05:40:48.428Z,16.56
2018-08-28T05:41:48.486Z,16.59
2018-08-28T05:42:49.990Z,16.60
2018-08-28T05:43:48.438Z,16.55
2018-08-28T05:44:48.435Z,16.58
2018-08-28T05:45:48.432Z,16.59
2018-08-28T05:46:49.632Z,16.68
2018-08-28T05:47:50.831Z,16.75
2018-08-28T05:48:49.490Z,16.78
2018-08-28T05:49:48.434Z,16.81
2018-08-28T05:50:48.440Z,16.98
2018-08-28T05:51:48.474Z,16.93
2018-08-28T05:52:48.438Z,17.17
2018-08-28T05:53:51.517Z,17.26
2018-08-28T05:54:49.082Z,17.44
2018-08-28T05:55:48.534Z,17.53
2018-08-28T05:56:48.649Z,17.53
2018-08-28T05:57:48.572Z,17.47
2018-08-28T05:58:49.023Z,17.47
2018-08-28T05:59:48.660Z,17.48
2018-08-28T06:00:48.452Z,17.47
2018-08-28T06:01:48.480Z,17.50
2018-08-28T06:02:50.120Z,17.51
2018-08-28T06:03:49.554Z,17.51
2018-08-28T06:04:49.325Z,17.46
2018-08-28T06:06:52.494Z,17.54
2018-08-28T06:07:51.693Z,17.53
2018-08-28T06:08:48.734Z,17.66
2018-08-28T06:09:49.496Z,17.71
2018-08-28T06:10:49.583Z,17.81
2018-08-28T06:11:48.496Z,17.78
2018-08-28T06:12:49.131Z,17.82
2018-08-28T06:13:53.375Z,17.84
2018-08-28T06:14:48.932Z,17.92
2018-08-28T06:15:50.002Z,17.99
2018-08-28T06:16:54.032Z,17.97
2018-08-28T06:17:48.472Z,17.92
2018-08-28T06:18:48.469Z,17.81
2018-08-28T06:19:48.476Z,18.00
2018-08-28T06:20:48.477Z,18.02
2018-08-28T06:21:48.500Z,18.06
2018-08-28T06:22:48.473Z,18.09
2018-08-28T06:23:48.476Z,18.12
2018-08-28T06:24:48.478Z,18.12
2018-08-28T06:25:48.476Z,18.15
2018-08-28T06:26:48.504Z,18.18
2018-08-28T06:27:48.492Z,18.18
2018-08-28T06:28:48.480Z,18.28
2018-08-28T06:29:48.486Z,18.10
2018-08-28T06:30:48.485Z,18.07
2018-08-28T06:31:48.517Z,18.15
2018-08-28T06:32:48.490Z,18.18
2018-08-28T06:33:48.505Z,18.22
2018-08-28T06:34:48.494Z,18.27
2018-08-28T06:35:48.494Z,18.37
2018-08-28T06:36:48.521Z,18.33
2018-08-28T06:37:48.499Z,18.37
2018-08-28T06:38:48.510Z,18.34
2018-08-28T06:39:48.503Z,18.31
2018-08-28T06:40:48.506Z,18.46
2018-08-28T06:41:48.531Z,18.42
2018-08-28T06:42:48.513Z,18.42
2018-08-28T06:43:48.554Z,18.47
2018-08-28T06:44:48.513Z,18.54
2018-08-28T06:45:48.516Z,18.64
2018-08-28T06:46:48.555Z,18.70
2018-08-28T06:47:48.520Z,18.74
2018-08-28T06:48:48.520Z,18.80
2018-08-28T06:49:48.524Z,18.80
2018-08-28T06:50:48.532Z,18.90
2018-08-28T06:51:48.558Z,18.87
2018-08-28T06:52:48.529Z,18.86
2018-08-28T06:53:48.540Z,18.83
2018-08-28T06:54:48.533Z,18.94
2018-08-28T06:55:48.536Z,18.98
2018-08-28T06:56:48.586Z,19.06
2018-08-28T06:57:48.542Z,19.11
2018-08-28T06:58:48.548Z,19.23
2018-08-28T06:59:49.143Z,19.18
2018-08-28T07:00:48.551Z,19.21
2018-08-28T07:01:48.582Z,19.18
2018-08-28T07:02:48.558Z,19.29
2018-08-28T07:03:48.562Z,19.28
2018-08-28T07:04:48.560Z,19.24
2018-08-28T07:05:48.595Z,19.32
2018-08-28T07:06:48.566Z,19.46
2018-08-28T07:07:48.580Z,19.42
2018-08-28T07:08:48.597Z,19.35
2018-08-28T07:09:48.571Z,19.31
2018-08-28T07:10:48.576Z,19.18
2018-08-28T07:11:48.608Z,19.08
2018-08-28T07:12:48.588Z,19.17
2018-08-28T07:13:48.584Z,19.21
2018-08-28T07:14:48.588Z,19.31
2018-08-28T07:15:48.585Z,19.36
2018-08-28T07:16:48.621Z,19.54
2018-08-28T07:17:48.599Z,19.57
2018-08-28T07:18:48.649Z,19.61
2018-08-28T07:19:48.600Z,19.72
2018-08-28T07:20:48.605Z,19.78
2018-08-28T07:21:48.639Z,19.80
2018-08-28T07:22:48.613Z,19.94
2018-08-28T07:23:48.615Z,19.98
2018-08-28T07:24:48.615Z,20.05
2018-08-28T07:25:48.726Z,20.08
2018-08-28T07:26:48.654Z,20.09
2018-08-28T07:27:48.633Z,20.16
2018-08-28T07:28:48.662Z,20.16
2018-08-28T07:29:48.633Z,20.28
2018-08-28T07:30:48.638Z,20.46
2018-08-28T07:31:48.744Z,20.59
2018-08-28T07:32:48.671Z,20.61
2018-08-28T07:33:48.656Z,20.65
2018-08-28T07:34:48.658Z,20.72
2018-08-28T07:35:48.661Z,20.61
2018-08-28T07:36:48.660Z,20.41
2018-08-28T07:37:48.696Z,20.46
2018-08-28T07:38:48.671Z,20.54
2018-08-28T07:39:48.672Z,20.66
2018-08-28T07:40:48.673Z,20.66
2018-08-28T07:41:48.685Z,20.89
2018-08-28T07:42:48.716Z,20.98
2018-08-28T07:43:48.693Z,21.01
2018-08-28T07:44:48.696Z,21.17
2018-08-28T07:45:48.697Z,21.27
2018-08-28T07:46:48.709Z,21.08
2018-08-28T07:47:48.739Z,21.20
2018-08-28T07:48:48.723Z,21.11
2018-08-28T07:49:48.722Z,21.13
2018-08-28T07:50:48.720Z,21.09
2018-08-28T07:51:48.726Z,21.14
2018-08-28T07:52:48.755Z,21.23
2018-08-28T07:53:48.748Z,21.42
2018-08-28T07:54:48.746Z,21.38
2018-08-28T07:55:48.746Z,21.38
2018-08-28T07:56:48.755Z,21.44
2018-08-28T07:57:48.784Z,21.50
2018-08-28T07:58:48.762Z,21.64
2018-08-28T07:59:48.769Z,21.72
2018-08-28T08:00:48.777Z,21.78
2018-08-28T08:01:48.776Z,22.01
2018-08-28T08:02:48.808Z,21.98
2018-08-28T08:03:48.788Z,22.07
2018-08-28T08:04:48.792Z,22.06
2018-08-28T08:05:48.796Z,21.83
2018-08-28T08:06:48.807Z,21.98
2018-08-28T08:07:48.837Z,22.09
2018-08-28T08:08:48.812Z,22.25
2018-08-28T08:09:48.824Z,22.29
2018-08-28T08:10:48.825Z,22.29
2018-08-28T08:11:48.833Z,22.34
2018-08-28T08:12:48.867Z,22.32
2018-08-28T08:13:48.839Z,21.90
2018-08-28T08:14:48.849Z,22.01
2018-08-28T08:15:49.008Z,22.14
2018-08-28T08:16:48.860Z,22.13
2018-08-28T08:17:48.894Z,22.14
2018-08-28T08:18:48.908Z,22.28
2018-08-28T08:19:48.878Z,22.37
2018-08-28T08:20:48.886Z,22.37
2018-08-28T08:21:48.908Z,22.47
2018-08-28T08:22:48.898Z,22.39
2018-08-28T08:23:48.935Z,22.34
2018-08-28T08:24:48.907Z,22.37
2018-08-28T08:25:48.914Z,22.57
2018-08-28T08:26:48.923Z,22.78
2018-08-28T08:27:48.951Z,22.69
2018-08-28T08:28:48.959Z,22.78
2018-08-28T08:29:48.941Z,22.84
2018-08-28T08:30:48.951Z,22.78
2018-08-28T08:31:48.953Z,22.92
2018-08-28T08:32:48.961Z,23.20
2018-08-28T08:33:48.992Z,23.17
2018-08-28T08:34:48.977Z,23.05
2018-08-28T08:35:48.981Z,22.96
2018-08-28T08:36:48.987Z,22.68
2018-08-28T08:37:49.001Z,22.87
2018-08-28T08:38:49.029Z,22.94
2018-08-28T08:39:49.010Z,23.29
2018-08-28T08:40:49.014Z,22.93
2018-08-28T08:41:49.078Z,22.89
2018-08-28T08:42:49.027Z,23.01
2018-08-28T08:43:49.070Z,23.15
2018-08-28T08:44:49.052Z,23.26
2018-08-28T08:45:49.055Z,23.24
2018-08-28T08:46:49.063Z,23.31
2018-08-28T08:47:49.073Z,23.35
2018-08-28T08:48:49.103Z,23.47
2018-08-28T08:49:49.091Z,23.62
2018-08-28T08:50:49.095Z,23.76
2018-08-28T08:51:49.099Z,24.00
2018-08-28T08:52:49.108Z,24.16
2018-08-28T08:53:49.158Z,24.27
2018-08-28T08:54:49.179Z,24.12
2018-08-28T08:55:49.136Z,24.13
2018-08-28T08:56:49.142Z,24.17
2018-08-28T08:57:49.148Z,24.04
2018-08-28T08:58:49.184Z,23.47
2018-08-28T08:59:49.173Z,23.80
2018-08-28T09:00:49.177Z,24.20
2018-08-28T09:01:49.188Z,24.39
2018-08-28T09:02:49.221Z,24.37
2018-08-28T09:03:49.201Z,24.68
2018-08-28T09:04:49.238Z,24.85
2018-08-28T09:05:49.216Z,24.94
2018-08-28T09:06:49.236Z,24.79
2018-08-28T09:07:49.239Z,24.95
2018-08-28T09:08:49.274Z,25.00
2018-08-28T09:09:49.254Z,25.49
2018-08-28T09:10:49.270Z,25.80
2018-08-28T09:11:49.270Z,25.98
2018-08-28T09:12:49.278Z,26.01
2018-08-28T09:13:49.331Z,26.06
2018-08-28T09:14:49.302Z,26.20
2018-08-28T09:15:49.316Z,26.37
2018-08-28T09:16:49.327Z,26.54
2018-08-28T09:17:49.339Z,26.73
2018-08-28T09:18:49.376Z,26.76
2018-08-28T09:19:49.394Z,26.79
2018-08-28T09:20:49.372Z,26.31
2018-08-28T09:21:49.385Z,24.79
2018-08-28T09:22:49.394Z,23.34
2018-08-28T09:23:49.432Z,23.52
2018-08-28T09:24:49.416Z,23.95
2018-08-28T09:25:49.431Z,23.65
2018-08-28T09:26:49.452Z,23.97
2018-08-28T09:27:49.457Z,24.76
2018-08-28T09:28:49.493Z,25.69
2018-08-28T09:29:50.126Z,26.72
2018-08-28T09:30:49.553Z,27.31
2018-08-28T09:31:49.503Z,27.31
2018-08-28T09:32:49.518Z,27.16
2018-08-28T09:33:49.558Z,26.92
2018-08-28T09:34:49.544Z,26.31
2018-08-28T09:35:49.554Z,26.40
2018-08-28T09:36:49.569Z,26.37
2018-08-28T09:37:50.860Z,26.44
2018-08-28T09:38:53.623Z,26.62
2018-08-28T09:39:54.915Z,26.74
2018-08-28T09:40:49.623Z,27.01
2018-08-28T09:41:49.636Z,27.42
2018-08-28T09:42:49.649Z,27.33
2018-08-28T09:43:49.729Z,27.11
2018-08-28T09:44:49.681Z,27.59
2018-08-28T09:45:49.688Z,27.57
2018-08-28T09:46:49.710Z,28.26
2018-08-28T09:47:49.733Z,28.11
2018-08-28T09:48:49.765Z,28.11
2018-08-28T09:49:49.753Z,27.57
2018-08-28T09:50:49.821Z,26.96
2018-08-28T09:51:49.772Z,26.95
2018-08-28T09:52:49.785Z,27.06
2018-08-28T09:53:49.834Z,27.35
2018-08-28T09:54:49.819Z,27.73
2018-08-28T09:55:49.830Z,28.17
2018-08-28T09:56:49.846Z,28.56
2018-08-28T09:57:52.058Z,29.00
2018-08-28T09:58:49.904Z,29.41
2018-08-28T09:59:50.558Z,29.41
2018-08-28T10:00:49.901Z,29.75
2018-08-28T10:01:49.919Z,29.74
2018-08-28T10:02:49.936Z,29.79
2018-08-28T10:03:49.980Z,30.00
2018-08-28T10:04:50.054Z,29.56
2018-08-28T10:05:49.994Z,29.28
2018-08-28T10:06:50.000Z,29.57
2018-08-28T10:07:50.033Z,29.74
2018-08-28T10:08:50.058Z,29.37
2018-08-28T10:09:50.058Z,29.40
2018-08-28T10:10:50.113Z,29.11
2018-08-28T10:11:50.087Z,28.51
2018-08-28T10:12:50.101Z,28.81
2018-08-28T10:13:50.146Z,29.07
2018-08-28T10:14:50.142Z,29.25
2018-08-28T10:15:50.150Z,27.77
2018-08-28T10:16:50.166Z,26.98
2018-08-28T10:17:50.186Z,27.41
2018-08-28T10:18:50.230Z,27.43
2018-08-28T10:19:50.225Z,27.96
2018-08-28T10:20:50.236Z,27.41
2018-08-28T10:21:50.255Z,27.10
2018-08-28T10:22:50.287Z,26.73
2018-08-28T10:23:50.310Z,26.64
2018-08-28T10:24:50.300Z,26.55
2018-08-28T10:25:50.316Z,26.50
2018-08-28T10:26:50.332Z,26.57
2018-08-28T10:27:50.345Z,26.49
2018-08-28T10:28:50.388Z,26.31
2018-08-28T10:29:50.389Z,26.20
2018-08-28T10:30:50.400Z,26.06
2018-08-28T10:31:50.496Z,25.62
2018-08-28T10:32:50.414Z,25.34
2018-08-28T10:33:50.449Z,25.38
2018-08-28T10:34:50.441Z,25.74
2018-08-28T10:35:50.456Z,26.39
2018-08-28T10:36:50.467Z,27.19
2018-08-28T10:37:50.473Z,27.96
2018-08-28T10:38:50.532Z,28.51
2018-08-28T10:39:50.506Z,28.77
2018-08-28T10:40:50.526Z,28.16
2018-08-28T10:41:50.534Z,28.54
2018-08-28T10:42:50.556Z,28.56
2018-08-28T10:43:50.591Z,28.44
2018-08-28T10:44:50.578Z,28.36
2018-08-28T10:45:50.632Z,27.95
2018-08-28T10:46:50.759Z,28.29
2018-08-28T10:49:22.289Z,29.03
2018-08-28T10:50:22.273Z,29.29
2018-08-28T10:51:22.288Z,29.50
2018-08-28T10:52:22.308Z,29.55
2018-08-28T10:53:22.316Z,29.38
2018-08-28T10:54:22.376Z,29.63
2018-08-28T10:55:22.355Z,29.71
2018-08-28T10:56:22.668Z,29.33
2018-08-28T10:57:22.573Z,28.54
2018-08-28T10:58:24.725Z,27.70
2018-08-28T10:59:22.458Z,27.23
2018-08-28T11:00:22.438Z,26.98
2018-08-28T11:01:22.458Z,27.29
2018-08-28T11:02:23.597Z,27.43
2018-08-28T11:03:22.492Z,27.69
2018-08-28T11:04:22.548Z,27.85
2018-08-28T11:05:22.522Z,28.23
2018-08-28T11:06:22.545Z,28.41
2018-08-28T11:07:22.561Z,29.07
2018-08-28T11:08:22.575Z,29.29
2018-08-28T11:09:22.755Z,29.07
2018-08-28T11:10:22.607Z,28.80
2018-08-28T11:11:22.623Z,28.82
2018-08-28T11:12:22.657Z,29.18
2018-08-28T11:13:22.657Z,29.29
2018-08-28T11:14:22.700Z,28.80
2018-08-28T11:15:22.692Z,29.33
2018-08-28T11:16:22.710Z,29.62
2018-08-28T11:17:22.729Z,29.08
2018-08-28T11:18:22.754Z,28.41
2018-08-28T11:19:22.797Z,28.32
2018-08-28T11:20:22.785Z,28.58
2018-08-28T11:21:22.807Z,29.04
2018-08-28T11:22:22.850Z,29.65
2018-08-28T11:23:22.871Z,29.41
2018-08-28T11:24:22.853Z,29.34
2018-08-28T11:25:22.879Z,28.85
2018-08-28T11:26:22.897Z,28.43
2018-08-28T11:27:22.912Z,28.10
2018-08-28T11:28:22.961Z,28.56
2018-08-28T11:29:22.944Z,28.41
2018-08-28T11:30:22.968Z,28.53
2018-08-28T11:31:23.045Z,29.13
2018-08-28T11:32:23.033Z,29.23
2018-08-28T11:33:23.017Z,28.33
2018-08-28T11:34:23.065Z,28.51
2018-08-28T11:35:23.057Z,28.90
2018-08-28T11:36:23.073Z,29.15
2018-08-28T11:37:23.094Z,29.59
2018-08-28T11:38:23.186Z,29.59
2018-08-28T11:39:23.161Z,29.99
2018-08-28T11:40:23.153Z,30.08
2018-08-28T11:41:23.166Z,29.72
2018-08-28T11:42:23.186Z,29.10
2018-08-28T11:43:23.209Z,28.23
2018-08-28T11:44:23.265Z,28.25
2018-08-28T11:45:23.247Z,28.88
2018-08-28T11:46:23.266Z,29.45
2018-08-28T11:47:23.279Z,29.00
2018-08-28T11:48:23.298Z,29.03
2018-08-28T11:49:23.359Z,28.82
2018-08-28T11:50:23.342Z,28.44
2018-08-28T11:51:23.363Z,27.88
2018-08-28T11:52:23.390Z,27.73
2018-08-28T11:53:23.475Z,28.41
2018-08-28T11:54:23.444Z,29.07
2018-08-28T11:55:23.441Z,29.55
2018-08-28T11:56:23.784Z,29.75
2018-08-28T11:57:23.478Z,30.15
2018-08-28T11:58:23.863Z,30.52
2018-08-28T11:59:23.517Z,30.74
2018-08-28T12:00:23.538Z,30.09
2018-08-28T12:01:23.557Z,29.65
2018-08-28T12:02:23.603Z,29.82
2018-08-28T12:03:23.648Z,30.11
2018-08-28T12:04:23.647Z,29.84
2018-08-28T12:05:23.691Z,29.68
2018-08-28T12:06:23.666Z,29.86
2018-08-28T12:07:23.765Z,30.08
2018-08-28T12:08:23.688Z,30.12
2018-08-28T12:09:27.154Z,29.59
2018-08-28T12:10:23.732Z,29.86
2018-08-28T12:11:23.750Z,30.31
2018-08-28T12:12:23.772Z,30.38
2018-08-28T12:13:23.793Z,30.83
2018-08-28T12:14:23.843Z,30.99
2018-08-28T12:15:23.828Z,30.93
2018-08-28T12:16:23.847Z,30.36
2018-08-28T12:17:23.869Z,29.43
2018-08-28T12:18:23.889Z,28.47
2018-08-28T12:19:23.935Z,28.01
2018-08-28T12:20:23.978Z,27.53
2018-08-28T12:21:23.946Z,27.04
2018-08-28T12:22:23.967Z,27.36
2018-08-28T12:23:23.979Z,26.62
2018-08-28T12:24:24.026Z,25.87
2018-08-28T12:25:24.024Z,26.09
2018-08-28T12:26:24.031Z,26.27
2018-08-28T12:27:24.096Z,26.89
2018-08-28T12:28:24.895Z,27.59
2018-08-28T12:29:24.121Z,28.10
2018-08-28T12:30:24.130Z,28.59
2018-08-28T12:31:24.116Z,28.91
2018-08-28T12:32:24.133Z,29.06
2018-08-28T12:33:24.170Z,29.10
2018-08-28T12:34:24.191Z,29.59
2018-08-28T12:35:24.183Z,29.81
2018-08-28T12:36:24.198Z,29.93
2018-08-28T12:37:24.244Z,30.11
2018-08-28T12:38:24.242Z,30.09
2018-08-28T12:39:24.279Z,29.84
2018-08-28T12:40:24.270Z,29.71
2018-08-28T12:41:24.334Z,29.72
2018-08-28T12:42:24.312Z,28.59
2018-08-28T12:43:24.322Z,27.84
2018-08-28T12:44:24.371Z,28.14
2018-08-28T12:45:24.359Z,28.46
2018-08-28T12:46:24.372Z,28.54
2018-08-28T12:47:26.765Z,29.00
2018-08-28T12:48:24.407Z,29.19
2018-08-28T12:49:24.911Z,29.35
2018-08-28T12:50:29.544Z,29.33
2018-08-28T12:51:26.145Z,29.31
2018-08-28T12:52:32.433Z,29.03
2018-08-28T12:53:24.498Z,29.16
2018-08-28T12:54:24.538Z,29.43
2018-08-28T12:55:24.529Z,29.57